Terminal Aerodrome Forecast
Issued by NWS

Home | Current Version | Previous Version | Text Only | Print | Product List | Glossary On
Versions: 1 2 3 4 5 6 7 8 9 10 11 12 13 14 15 16 17
000
FTUS45 KLKN 221125
TAFELY
TAF
KELY 221125Z 2212/2312 17010KT P6SM FEW045 BKN250
     FM221800 VRB06KT P6SM SCT250
     FM222200 32008KT P6SM SCT250
     FM230200 VRB06KT P6SM SCT250
     FM230700 18009KT P6SM FEW250=

USA.gov is the U.S. government's official web portal to all federal, state and local government web resources and services.